createdAt,value
2022-09-14T00:03:25.442Z,10.30
2022-09-14T00:08:28.187Z,2.80
2022-09-14T00:13:31.619Z,2.00
2022-09-14T00:18:34.935Z,2.10
2022-09-14T00:23:39.684Z,2.10
2022-09-14T00:28:49.878Z,2.10
2022-09-14T00:33:54.927Z,1.80
2022-09-14T00:38:58.125Z,3.20
2022-09-14T00:44:10.739Z,2.70
2022-09-14T00:49:40.805Z,2.60
2022-09-14T00:54:53.127Z,3.60
2022-09-14T00:59:55.859Z,2.70
2022-09-14T01:04:58.498Z,2.70
2022-09-14T01:10:16.412Z,3.80
2022-09-14T01:15:44.009Z,3.20
2022-09-14T01:20:55.763Z,3.80
2022-09-14T01:26:01.238Z,3.30
2022-09-14T01:31:07.515Z,3.60
2022-09-14T01:36:10.282Z,4.10
2022-09-14T01:41:15.377Z,3.60
2022-09-14T01:46:22.628Z,4.00
2022-09-14T01:52:22.200Z,4.00
2022-09-14T01:57:48.393Z,4.80
2022-09-14T02:03:00.786Z,4.50
2022-09-14T02:08:03.795Z,5.50
2022-09-14T02:13:07.227Z,7.10
2022-09-14T02:18:09.912Z,6.10
2022-09-14T02:23:12.891Z,9.40
2022-09-14T02:28:16.225Z,7.10
2022-09-14T02:33:48.956Z,8.50
2022-09-14T02:39:56.198Z,8.90
2022-09-14T02:45:45.300Z,9.90
2022-09-14T02:51:14.983Z,10.20
2022-09-14T02:56:17.757Z,10.90
2022-09-14T03:01:22.543Z,11.80
2022-09-14T03:06:25.659Z,12.90
2022-09-14T03:11:28.335Z,14.10
2022-09-14T03:16:31.044Z,14.80
2022-09-14T03:21:33.819Z,18.30
2022-09-14T03:26:38.624Z,16.90
2022-09-14T03:31:41.420Z,17.70
2022-09-14T03:36:44.240Z,18.90
2022-09-14T03:41:46.912Z,19.80
2022-09-14T03:46:49.641Z,20.00
2022-09-14T03:51:55.336Z,21.70
2022-09-14T03:57:01.867Z,28.30
2022-09-14T04:02:04.830Z,25.80
2022-09-14T04:07:07.620Z,24.90
2022-09-14T04:12:10.424Z,22.00
2022-09-14T04:17:13.587Z,22.60
2022-09-14T04:22:16.403Z,21.40
2022-09-14T04:27:19.092Z,21.10
2022-09-14T04:32:21.771Z,22.20
2022-09-14T04:37:24.572Z,19.50
2022-09-14T04:42:27.456Z,22.00
2022-09-14T04:47:30.519Z,19.40
2022-09-14T04:52:33.158Z,18.40
2022-09-14T04:57:35.915Z,20.70
2022-09-14T05:02:41.575Z,19.40
2022-09-14T05:07:44.286Z,21.60
2022-09-14T05:12:46.929Z,19.60
2022-09-14T05:17:49.672Z,18.00
2022-09-14T05:22:52.381Z,20.70
2022-09-14T05:27:55.106Z,17.90
2022-09-14T05:32:58.242Z,18.70
2022-09-14T05:38:00.975Z,16.30
2022-09-14T05:43:03.733Z,17.40
2022-09-14T05:48:06.404Z,15.20
2022-09-14T05:53:09.210Z,15.40
2022-09-14T05:58:13.425Z,14.80
2022-09-14T06:03:16.106Z,16.10
2022-09-14T06:08:18.972Z,15.70
2022-09-14T06:13:23.440Z,16.50
2022-09-14T06:18:26.197Z,16.10
2022-09-14T06:23:29.273Z,16.30
2022-09-14T06:28:32.286Z,20.50
2022-09-14T06:33:35.064Z,21.20
2022-09-14T06:38:37.965Z,21.10
2022-09-14T06:43:42.383Z,21.10
2022-09-14T06:48:50.560Z,21.10
2022-09-14T06:58:58.316Z,22.40
2022-09-14T07:04:01.743Z,20.10
2022-09-14T07:09:05.128Z,20.00
2022-09-14T07:14:08.211Z,21.40
2022-09-14T07:19:12.877Z,21.40
2022-09-14T07:24:15.909Z,19.40
2022-09-14T07:29:20.031Z,19.20
2022-09-14T07:34:23.874Z,18.50
2022-09-14T07:39:26.509Z,21.00
2022-09-14T07:44:29.200Z,22.10
2022-09-14T07:49:31.866Z,16.10
2022-09-14T07:54:35.507Z,16.80
2022-09-14T07:59:38.390Z,18.70
2022-09-14T08:04:42.562Z,14.80
2022-09-14T08:09:45.336Z,14.80
2022-09-14T08:14:48.225Z,12.90
2022-09-14T08:19:52.160Z,10.30
2022-09-14T08:24:54.813Z,11.00
2022-09-14T08:29:57.477Z,12.90
2022-09-14T08:35:00.759Z,11.40
2022-09-14T08:40:03.916Z,8.90
2022-09-14T08:45:09.758Z,9.60
2022-09-14T08:50:21.357Z,8.90
2022-09-14T08:55:35.642Z,12.90
2022-09-14T09:01:09.647Z,9.80
2022-09-14T09:06:37.343Z,12.90
2022-09-14T09:11:42.865Z,10.60
2022-09-14T09:16:48.119Z,10.90
2022-09-14T09:21:50.827Z,12.80
2022-09-14T09:26:53.506Z,7.30
2022-09-14T09:31:56.466Z,9.70
2022-09-14T09:37:00.944Z,9.50
2022-09-14T09:42:27.289Z,10.60
2022-09-14T09:47:41.107Z,8.90
2022-09-14T09:52:55.060Z,8.00
2022-09-14T09:57:57.818Z,7.00
2022-09-14T10:03:02.554Z,9.10
2022-09-14T10:08:11.228Z,8.90
2022-09-14T10:13:38.338Z,6.40
2022-09-14T10:18:49.995Z,8.60
2022-09-14T10:24:17.414Z,9.00
2022-09-14T10:29:32.634Z,8.10
2022-09-14T10:34:35.415Z,6.20
2022-09-14T10:39:46.636Z,7.20
2022-09-14T10:45:16.179Z,4.60
2022-09-14T10:50:33.976Z,4.80
2022-09-14T10:56:21.697Z,3.40
2022-09-14T11:01:56.108Z,2.90
2022-09-14T11:07:44.192Z,4.60
2022-09-14T11:13:18.912Z,5.10
2022-09-14T11:18:38.561Z,4.20
2022-09-14T11:23:56.597Z,4.80
2022-09-14T11:34:45.869Z,3.50
2022-09-14T11:40:06.566Z,5.70
2022-09-14T11:45:30.743Z,3.30
2022-09-14T11:50:33.543Z,4.80
2022-09-14T11:55:36.308Z,3.50
2022-09-14T12:00:44.295Z,3.50
2022-09-14T12:05:48.569Z,3.10
2022-09-14T12:11:09.847Z,3.10
2022-09-14T12:16:12.555Z,2.90
2022-09-14T12:21:26.020Z,3.30
2022-09-14T12:26:32.274Z,5.70
2022-09-14T12:31:44.128Z,4.50
2022-09-14T12:36:46.772Z,6.20
2022-09-14T12:41:49.396Z,3.70
2022-09-14T12:46:52.142Z,5.30
2022-09-14T12:51:54.910Z,4.50
2022-09-14T12:57:26.048Z,3.20
2022-09-14T13:03:00.047Z,3.60
2022-09-14T13:08:10.175Z,3.10
2022-09-14T13:13:22.847Z,4.30
2022-09-14T13:18:35.624Z,4.40
2022-09-14T13:23:41.632Z,2.90
2022-09-14T13:28:47.541Z,3.10
2022-09-14T13:38:54.391Z,2.90
2022-09-14T13:43:57.565Z,4.80
2022-09-14T13:49:00.787Z,4.80
2022-09-14T13:54:37.422Z,4.30
2022-09-14T14:00:26.903Z,3.00
2022-09-14T14:05:32.160Z,4.60
2022-09-14T14:10:39.269Z,5.80
2022-09-14T14:15:43.156Z,5.20
2022-09-14T14:20:46.070Z,4.50
2022-09-14T14:25:54.629Z,5.30
2022-09-14T14:31:07.724Z,4.40
2022-09-14T14:36:11.422Z,3.30
2022-09-14T14:41:16.662Z,2.70
2022-09-14T14:46:19.519Z,2.80
2022-09-14T14:51:22.531Z,2.20
2022-09-14T14:56:25.163Z,3.80
2022-09-14T15:01:28.171Z,3.60
2022-09-14T15:06:31.045Z,6.10
2022-09-14T15:11:36.111Z,4.50
2022-09-14T15:16:39.099Z,3.60
2022-09-14T15:21:42.425Z,4.50
2022-09-14T15:26:45.107Z,3.80
2022-09-14T15:31:47.845Z,3.50
2022-09-14T15:36:52.576Z,5.60
2022-09-14T15:41:56.031Z,5.60
2022-09-14T15:46:59.042Z,5.40
2022-09-14T15:52:02.123Z,3.40
2022-09-14T15:57:08.559Z,4.60
2022-09-14T16:02:12.532Z,3.00
2022-09-14T16:07:15.466Z,5.80
2022-09-14T16:12:18.188Z,5.00
2022-09-14T16:17:21.187Z,4.80
2022-09-14T16:22:25.255Z,4.40
2022-09-14T16:27:28.533Z,4.40
2022-09-14T16:32:31.439Z,5.00
2022-09-14T16:37:34.208Z,3.90
2022-09-14T16:42:37.313Z,6.30
2022-09-14T16:47:40.289Z,4.80
2022-09-14T16:52:42.907Z,4.00
2022-09-14T16:57:45.624Z,5.20
2022-09-14T17:02:52.162Z,3.70
2022-09-14T17:07:54.853Z,4.50
2022-09-14T17:12:57.628Z,6.80
2022-09-14T17:18:00.311Z,5.30
2022-09-14T17:23:02.966Z,4.00
2022-09-14T17:28:05.618Z,5.20
2022-09-14T17:33:08.354Z,7.80
2022-09-14T17:38:11.015Z,5.40
2022-09-14T17:43:13.759Z,3.70
2022-09-14T17:48:16.586Z,6.70
2022-09-14T17:53:20.739Z,5.30
2022-09-14T17:58:23.493Z,6.20
2022-09-14T18:03:26.277Z,5.90
2022-09-14T18:08:29.093Z,6.30
2022-09-14T18:13:31.848Z,5.00
2022-09-14T18:18:34.739Z,6.80
2022-09-14T18:23:37.611Z,6.20
2022-09-14T18:28:40.423Z,3.20
2022-09-14T18:33:53.281Z,5.00
2022-09-14T18:38:58.037Z,6.80
2022-09-14T18:44:01.839Z,5.70
2022-09-14T18:49:04.943Z,7.70
2022-09-14T18:54:07.672Z,6.40
2022-09-14T18:59:13.126Z,10.30
2022-09-14T19:04:15.866Z,8.30
2022-09-14T19:09:18.657Z,11.80
2022-09-14T19:14:21.417Z,10.90
2022-09-14T19:19:26.196Z,7.20
2022-09-14T19:24:30.917Z,9.50
2022-09-14T19:29:33.614Z,7.20
2022-09-14T19:34:38.277Z,8.60
2022-09-14T19:39:42.331Z,7.60
2022-09-14T19:44:44.984Z,10.10
2022-09-14T19:49:48.216Z,10.10
2022-09-14T19:54:50.880Z,10.40
2022-09-14T19:59:54.113Z,9.60
2022-09-14T20:04:56.769Z,9.10
2022-09-14T20:09:59.424Z,9.10
2022-09-14T20:15:02.186Z,9.30
2022-09-14T20:20:05.914Z,8.60
2022-09-14T20:25:09.256Z,8.90
2022-09-14T20:30:12.659Z,10.60
2022-09-14T20:35:16.113Z,9.80
2022-09-14T20:40:18.893Z,9.30
2022-09-14T20:45:21.784Z,11.00
2022-09-14T20:50:24.881Z,10.60
2022-09-14T20:55:27.540Z,10.40
2022-09-14T21:00:30.202Z,11.00
2022-09-14T21:05:32.879Z,14.40
2022-09-14T21:10:38.614Z,16.60
2022-09-14T21:15:41.351Z,15.00
2022-09-14T21:20:44.659Z,15.60
2022-09-14T21:25:55.653Z,13.20
2022-09-14T21:31:14.797Z,16.40
2022-09-14T21:36:27.012Z,15.60
2022-09-14T21:41:30.625Z,16.20
2022-09-14T21:46:33.434Z,15.70
2022-09-14T21:51:37.000Z,16.80
2022-09-14T21:56:42.944Z,15.20
2022-09-14T22:01:46.050Z,15.20
2022-09-14T22:06:51.456Z,14.40
2022-09-14T22:11:55.653Z,15.30
2022-09-14T22:16:58.581Z,14.90
2022-09-14T22:22:01.332Z,12.10
2022-09-14T22:27:05.164Z,13.20
2022-09-14T22:32:10.236Z,14.90
2022-09-14T22:37:13.058Z,12.30
2022-09-14T22:42:15.680Z,12.40
2022-09-14T22:47:18.305Z,14.10
2022-09-14T22:52:20.996Z,11.90
2022-09-14T22:57:24.840Z,11.30
2022-09-14T23:02:28.606Z,11.30
2022-09-14T23:07:31.899Z,12.60
2022-09-14T23:12:35.102Z,12.90
2022-09-14T23:17:37.724Z,11.90
2022-09-14T23:22:40.577Z,10.80
2022-09-14T23:27:43.240Z,13.00
2022-09-14T23:32:45.951Z,12.60
2022-09-14T23:37:48.678Z,12.60
2022-09-14T23:42:51.503Z,13.90
2022-09-14T23:47:54.214Z,12.20
2022-09-14T23:52:57.620Z,10.40
2022-09-14T23:58:00.252Z,11.50
